QFA9A YSSY-YPPH
Flight info
| Callsign | QFA9A |
|---|---|
| Flight time | N/A |
| Altitude | 40000 |
| Route | KEVIN7/16L 3358S15111E KADOM H44 MAXEM/N0490F430 H44 AD Q33 ESP Q158 PH |
| Aircraft | A359/H-SDE2E3GHIJ3J4J5LM1ORWXY/LB1D1 |
Departure
| Time | 2026-05-01 12:06 |
|---|---|
| Airport | Sydney Kingsford Smith International Airport (YSSY) |
Arrival
| Time | N/A |
|---|---|
| Airport | Perth International Airport (YPPH) |
| Time | Latitude | Longitude | Altitude | Speed | Heading |
|---|---|---|---|---|---|
| 2026-05-01 11:50 | -33.93828 | 151.16847 | 27 ft | 0 kts | 70° |
| 2026-05-01 11:53 | -33.93830 | 151.16843 | 27 ft | 2 kts | 71° |
| 2026-05-01 11:53 | -33.93835 | 151.16822 | 27 ft | 3 kts | 79° |
| 2026-05-01 11:53 | -33.93837 | 151.16798 | 27 ft | 3 kts | 91° |
| 2026-05-01 11:54 | -33.93835 | 151.16774 | 27 ft | 3 kts | 104° |
| 2026-05-01 11:54 | -33.93829 | 151.16751 | 27 ft | 3 kts | 123° |
| 2026-05-01 11:54 | -33.93816 | 151.16734 | 27 ft | 3 kts | 151° |
| 2026-05-01 11:54 | -33.93808 | 151.16729 | 27 ft | 0 kts | 165° |
| 2026-05-01 11:57 | -33.93811 | 151.16730 | 27 ft | 2 kts | 165° |
| 2026-05-01 11:58 | -33.93858 | 151.16746 | 27 ft | 12 kts | 164° |
| 2026-05-01 11:58 | -33.93964 | 151.16782 | 27 ft | 18 kts | 164° |
| 2026-05-01 11:58 | -33.94042 | 151.16922 | 27 ft | 13 kts | 74° |
| 2026-05-01 11:59 | -33.94013 | 151.17045 | 27 ft | 17 kts | 74° |
| 2026-05-01 11:59 | -33.93979 | 151.17196 | 27 ft | 14 kts | 82° |
| 2026-05-01 11:59 | -33.94025 | 151.17240 | 27 ft | 8 kts | 170° |
| 2026-05-01 12:00 | -33.94169 | 151.17273 | 28 ft | 18 kts | 167° |
| 2026-05-01 12:00 | -33.94326 | 151.17312 | 31 ft | 28 kts | 168° |
| 2026-05-01 12:00 | -33.94756 | 151.17427 | 30 ft | 33 kts | 165° |
| 2026-05-01 12:01 | -33.94991 | 151.17489 | 26 ft | 35 kts | 167° |
| 2026-05-01 12:01 | -33.95236 | 151.17552 | 25 ft | 37 kts | 168° |
| 2026-05-01 12:01 | -33.95488 | 151.17616 | 27 ft | 37 kts | 168° |
| 2026-05-01 12:01 | -33.95738 | 151.17680 | 31 ft | 37 kts | 168° |
| 2026-05-01 12:02 | -33.95993 | 151.17745 | 30 ft | 38 kts | 168° |
| 2026-05-01 12:02 | -33.96239 | 151.17811 | 29 ft | 36 kts | 166° |
| 2026-05-01 12:02 | -33.96422 | 151.17875 | 30 ft | 10 kts | 143° |
| 2026-05-01 12:02 | -33.96437 | 151.17904 | 30 ft | 0 kts | 108° |
| 2026-05-01 12:04 | -33.96439 | 151.17915 | 30 ft | 5 kts | 103° |
| 2026-05-01 12:04 | -33.96434 | 151.17992 | 30 ft | 11 kts | 78° |
| 2026-05-01 12:04 | -33.96388 | 151.18055 | 30 ft | 6 kts | 2° |
| 2026-05-01 12:05 | -33.96377 | 151.18052 | 30 ft | 0 kts | 347° |
| 2026-05-01 12:05 | -33.95937 | 151.17937 | 28 ft | 101 kts | 348° |
| 2026-05-01 12:05 | -33.95013 | 151.17697 | 27 ft | 168 kts | 348° |
| 2026-05-01 12:06 | -33.93800 | 151.17401 | 658 ft | 179 kts | 351° |
| 2026-05-01 12:06 | -33.92564 | 151.17092 | 1539 ft | 184 kts | 349° |
| 2026-05-01 12:06 | -33.91441 | 151.16293 | 2341 ft | 198 kts | 321° |
| 2026-05-01 12:06 | -33.90662 | 151.14865 | 3116 ft | 213 kts | 297° |
| 2026-05-01 12:07 | -33.90115 | 151.13125 | 3885 ft | 223 kts | 296° |
| 2026-05-01 12:07 | -33.89535 | 151.11403 | 4819 ft | 222 kts | 298° |
| 2026-05-01 12:07 | -33.88853 | 151.09699 | 5508 ft | 233 kts | 305° |
| 2026-05-01 12:07 | -33.87946 | 151.08066 | 5960 ft | 254 kts | 311° |
| 2026-05-01 12:08 | -33.86828 | 151.06246 | 6797 ft | 262 kts | 311° |
| 2026-05-01 12:08 | -33.85752 | 151.04493 | 7700 ft | 267 kts | 311° |
| 2026-05-01 12:08 | -33.84685 | 151.02570 | 8493 ft | 280 kts | 303° |
| 2026-05-01 12:08 | -33.83993 | 151.00342 | 9463 ft | 287 kts | 289° |
| 2026-05-01 12:09 | -33.83540 | 150.97988 | 10450 ft | 291 kts | 287° |
| 2026-05-01 12:09 | -33.83101 | 150.95543 | 11035 ft | 309 kts | 286° |
| 2026-05-01 12:09 | -33.82625 | 150.92930 | 11433 ft | 330 kts | 286° |
| 2026-05-01 12:09 | -33.82123 | 150.90184 | 12080 ft | 341 kts | 285° |
| 2026-05-01 12:10 | -33.81618 | 150.87410 | 12896 ft | 346 kts | 285° |
| 2026-05-01 12:10 | -33.80571 | 150.81696 | 14560 ft | 354 kts | 285° |
| 2026-05-01 12:10 | -33.80035 | 150.78784 | 15289 ft | 359 kts | 285° |